Murray, KY

5:47 PM CST on December 09, 2016 (GMT -0600)
Kyle-Oakley | | Change Station

Elev 577 ft 36.66 °N, 88.37 °W | Updated 12 minutes ago

Overcast
Overcast
28 °F
Feels Like 25 °F
N
4
Wind Variable Wind from NNW

Today
High -- | Low -- °F
--% Chance of Precip.
Yesterday
High -- | Low -- °F
Precip. -- in
Pressure 30.55 in
Visibility 10.0 miles
Clouds Mostly Cloudy 2000 ft
Overcast 12000 ft
Windchill 25 °F
Dew Point 14 °F
Humidity 55%
Rainfall 0.00 in
Snow Depth Not available.
6:54 AM 4:37 PM
Waxing Gibbous, 78% visible
METAR KCEY 092335Z AUTO 33003KT 10SM BKN020 OVC120 M02/M10 A3055 RMK AO1
Pressure 30.55 in
Visibility 10.0 miles
Clouds Mostly Cloudy 2000 ft
Overcast 12000 ft
Windchill 25 °F
Dew Point 14 °F
Humidity 55%
Rainfall 0.00 in
Snow Depth Not available.
6:54 AM 4:37 PM
Waxing Gibbous, 78% visible
METAR KCEY 092335Z AUTO 33003KT 10SM BKN020 OVC120 M02/M10 A3055 RMK AO1

10-Day Weather Forecast

Almanac

Astronomy

Dec. 09, 2016 Rise Set
Actual Time
Civil Twilight
Nautical Twilight
Astronomical Twilight
Moon
Length of Visible Light
Length of Day
Tomorrow will be .
, % of the Moon is Illuminated

Today's Extremes

State Highs State Lows

Community

WunderPhotos

Upload Photos

1,956,535 photos uploaded!

WunderBlog® & News

Nearby

Air Quality

  Air Quality AQ Index Pollutant
Not available.

Snow Depth

Station Depth Elevation

Earthquake Activity

City Distance Mag. Time & Date
Minimum magnitude displayed is 2.5.

Coastal Water Temperatures

Place Temperature

Stations

Nearby Weather Stations

Station Location Temp. Windchill Dew Point Humidity Wind Precip. Elev Updated Type
                   

Watches & Warnings

There are currently no watches in effect.